createdAt,value
2023-03-27T00:01:17.005Z,57.49
2023-03-27T00:03:44.766Z,56.23
2023-03-27T00:06:17.617Z,57.61
2023-03-27T00:08:46.679Z,58.86
2023-03-27T00:11:14.693Z,60.18
2023-03-27T00:13:49.043Z,63.59
2023-03-27T00:16:29.468Z,68.61
2023-03-27T00:19:01.413Z,67.49
2023-03-27T00:21:31.424Z,65.52
2023-03-27T00:23:58.129Z,64.07
2023-03-27T00:26:25.101Z,62.43
2023-03-27T00:28:53.096Z,61.41
2023-03-27T00:31:20.037Z,60.46
2023-03-27T00:33:46.933Z,57.91
2023-03-27T00:36:15.524Z,55.66
2023-03-27T00:38:44.223Z,56.11
2023-03-27T00:41:11.171Z,57.60
2023-03-27T00:43:45.298Z,59.20
2023-03-27T00:46:15.206Z,59.75
2023-03-27T00:48:47.448Z,63.78
2023-03-27T00:51:16.509Z,69.39
2023-03-27T00:53:46.158Z,68.45
2023-03-27T00:56:16.832Z,65.80
2023-03-27T00:59:16.897Z,63.96
2023-03-27T01:01:45.497Z,62.89
2023-03-27T01:04:12.992Z,62.01
2023-03-27T01:06:42.441Z,61.16
2023-03-27T01:09:10.017Z,58.04
2023-03-27T01:11:43.148Z,55.94
2023-03-27T01:14:37.904Z,56.54
2023-03-27T01:17:34.823Z,58.37
2023-03-27T01:20:04.336Z,59.62
2023-03-27T01:22:46.579Z,61.30
2023-03-27T01:25:40.907Z,65.24
2023-03-27T01:28:13.338Z,69.32
2023-03-27T01:30:56.768Z,67.38
2023-03-27T01:33:51.626Z,66.05
2023-03-27T01:36:27.655Z,64.61
2023-03-27T01:39:32.107Z,63.18
2023-03-27T01:42:14.492Z,62.00
2023-03-27T01:44:49.657Z,60.65
2023-03-27T01:47:47.878Z,57.36
2023-03-27T01:50:27.375Z,56.07
2023-03-27T01:53:05.015Z,58.26
2023-03-27T01:55:37.593Z,59.77
2023-03-27T01:58:14.257Z,63.75
2023-03-27T02:00:53.601Z,67.66
2023-03-27T02:03:42.299Z,67.15
2023-03-27T02:06:12.459Z,65.42
2023-03-27T02:09:01.421Z,63.88
2023-03-27T02:11:34.029Z,63.30
2023-03-27T02:14:07.330Z,62.04
2023-03-27T02:16:42.764Z,61.43
2023-03-27T02:19:15.092Z,60.65
2023-03-27T02:21:41.942Z,60.39
2023-03-27T02:24:09.306Z,57.84
2023-03-27T02:26:36.371Z,55.91
2023-03-27T02:29:24.303Z,56.83
2023-03-27T02:32:25.561Z,57.61
2023-03-27T02:35:15.724Z,58.01
2023-03-27T02:37:54.976Z,59.57
2023-03-27T02:40:24.963Z,65.23
2023-03-27T02:42:58.148Z,70.04
2023-03-27T02:45:32.447Z,69.05
2023-03-27T02:48:10.322Z,67.20
2023-03-27T02:51:10.298Z,65.16
2023-03-27T02:53:47.700Z,63.33
2023-03-27T02:56:17.907Z,62.20
2023-03-27T02:58:53.907Z,61.38
2023-03-27T03:01:22.712Z,60.69
2023-03-27T03:04:18.248Z,60.21
2023-03-27T03:06:45.805Z,59.91
2023-03-27T03:09:15.070Z,57.49
2023-03-27T03:11:54.260Z,55.46
2023-03-27T03:14:24.785Z,56.58
2023-03-27T03:16:52.099Z,57.92
2023-03-27T03:19:18.937Z,58.72
2023-03-27T03:21:49.680Z,59.90
2023-03-27T03:24:17.909Z,63.81
2023-03-27T03:26:45.417Z,69.84
2023-03-27T03:29:13.026Z,69.34
2023-03-27T03:31:43.631Z,66.67
2023-03-27T03:34:16.570Z,65.00
2023-03-27T03:36:45.129Z,64.55
2023-03-27T03:39:12.942Z,62.82
2023-03-27T03:41:39.881Z,62.34
2023-03-27T03:44:06.668Z,61.83
2023-03-27T03:46:33.522Z,61.06
2023-03-27T03:49:01.371Z,61.13
2023-03-27T03:51:28.891Z,60.56
2023-03-27T03:53:55.767Z,59.12
2023-03-27T03:56:22.516Z,56.45
2023-03-27T03:58:49.529Z,57.09
2023-03-27T04:01:20.871Z,58.10
2023-03-27T04:03:48.743Z,59.89
2023-03-27T04:06:21.243Z,60.83
2023-03-27T04:08:48.672Z,65.26
2023-03-27T04:11:15.378Z,70.63
2023-03-27T04:13:42.720Z,69.78
2023-03-27T04:16:09.907Z,67.23
2023-03-27T04:18:40.200Z,65.65
2023-03-27T04:21:15.053Z,64.09
2023-03-27T04:23:48.460Z,62.97
2023-03-27T04:26:16.337Z,61.73
2023-03-27T04:28:43.631Z,60.94
2023-03-27T04:31:11.166Z,60.35
2023-03-27T04:33:40.220Z,60.32
2023-03-27T04:36:08.382Z,60.27
2023-03-27T04:38:37.280Z,59.81
2023-03-27T04:41:05.524Z,57.13
2023-03-27T04:43:32.696Z,55.03
2023-03-27T04:45:59.594Z,56.33
2023-03-27T04:48:26.954Z,57.66
2023-03-27T04:50:54.144Z,58.37
2023-03-27T04:53:23.681Z,60.26
2023-03-27T04:55:53.494Z,64.94
2023-03-27T04:58:20.367Z,70.48
2023-03-27T05:00:50.870Z,69.60
2023-03-27T05:03:21.142Z,67.13
2023-03-27T05:05:52.747Z,65.67
2023-03-27T05:08:20.280Z,64.32
2023-03-27T05:10:47.642Z,62.95
2023-03-27T05:13:14.598Z,62.18
2023-03-27T05:15:42.006Z,61.58
2023-03-27T05:18:09.455Z,60.83
2023-03-27T05:20:37.322Z,60.03
2023-03-27T05:23:04.592Z,57.60
2023-03-27T05:25:32.951Z,55.89
2023-03-27T05:28:01.032Z,56.16
2023-03-27T05:30:29.082Z,57.29
2023-03-27T05:32:59.692Z,58.83
2023-03-27T05:35:28.782Z,59.77
2023-03-27T05:37:57.735Z,62.11
2023-03-27T05:40:26.360Z,68.28
2023-03-27T05:42:56.807Z,70.44
2023-03-27T05:45:24.486Z,68.43
2023-03-27T05:47:53.176Z,67.22
2023-03-27T05:50:23.095Z,65.92
2023-03-27T05:52:59.412Z,64.96
2023-03-27T05:55:28.055Z,63.87
2023-03-27T05:57:55.618Z,63.65
2023-03-27T06:00:26.568Z,63.07
2023-03-27T06:02:56.538Z,61.76
2023-03-27T06:05:25.261Z,60.94
2023-03-27T06:07:52.532Z,58.96
2023-03-27T06:10:22.706Z,57.11
2023-03-27T06:12:49.780Z,59.19
2023-03-27T06:15:16.830Z,60.12
2023-03-27T06:17:47.308Z,63.88
2023-03-27T06:20:15.763Z,67.25
2023-03-27T06:22:48.955Z,66.83
2023-03-27T06:25:16.882Z,65.76
2023-03-27T06:27:48.141Z,64.46
2023-03-27T06:30:17.597Z,63.18
2023-03-27T06:32:45.931Z,62.31
2023-03-27T06:35:14.863Z,61.88
2023-03-27T06:37:42.995Z,60.96
2023-03-27T06:40:10.805Z,58.20
2023-03-27T06:42:38.741Z,56.45
2023-03-27T06:45:06.673Z,57.77
2023-03-27T06:47:44.497Z,58.58
2023-03-27T06:50:15.196Z,59.18
2023-03-27T06:52:42.069Z,61.29
2023-03-27T06:55:14.747Z,67.12
2023-03-27T06:57:47.391Z,70.73
2023-03-27T07:00:17.765Z,68.59
2023-03-27T07:02:45.739Z,66.45
2023-03-27T07:05:13.595Z,64.46
2023-03-27T07:07:41.720Z,61.84
2023-03-27T07:10:10.052Z,61.40
2023-03-27T07:12:37.031Z,60.98
2023-03-27T07:15:06.919Z,60.31
2023-03-27T07:17:47.534Z,57.88
2023-03-27T07:20:15.765Z,55.69
2023-03-27T07:22:46.084Z,59.63
2023-03-27T07:25:13.332Z,60.58
2023-03-27T07:27:40.414Z,64.69
2023-03-27T07:30:12.573Z,68.07
2023-03-27T07:32:42.775Z,65.87
2023-03-27T07:35:11.093Z,63.24
2023-03-27T07:37:39.412Z,61.69
2023-03-27T07:40:13.578Z,60.33
2023-03-27T07:42:45.788Z,58.12
2023-03-27T07:45:14.005Z,57.28
2023-03-27T07:47:43.177Z,58.98
2023-03-27T07:50:19.339Z,62.19
2023-03-27T07:52:46.898Z,65.90
2023-03-27T07:55:18.180Z,66.41
2023-03-27T07:58:00.552Z,63.78
2023-03-27T08:00:30.120Z,62.07
2023-03-27T08:03:07.434Z,61.66
2023-03-27T08:05:35.307Z,60.98
2023-03-27T08:08:02.234Z,57.79
2023-03-27T08:10:29.189Z,57.44
2023-03-27T08:12:57.204Z,61.43
2023-03-27T08:15:25.490Z,63.89
2023-03-27T08:17:55.591Z,63.21
2023-03-27T08:20:24.391Z,61.20
2023-03-27T08:22:52.991Z,59.55
2023-03-27T08:25:22.845Z,60.01
2023-03-27T08:27:50.874Z,62.90
2023-03-27T08:30:18.423Z,64.11
2023-03-27T08:32:45.358Z,62.98
2023-03-27T08:35:12.605Z,63.03
2023-03-27T08:37:41.635Z,62.38
2023-03-27T08:40:19.706Z,61.07
2023-03-27T08:42:50.996Z,57.75
2023-03-27T08:45:24.114Z,58.71
2023-03-27T08:48:22.274Z,60.47
2023-03-27T08:51:20.305Z,64.74
2023-03-27T08:54:06.489Z,64.19
2023-03-27T08:56:34.819Z,61.97
2023-03-27T08:59:02.073Z,60.43
2023-03-27T09:01:47.307Z,58.58
2023-03-27T09:04:48.948Z,59.17
2023-03-27T09:07:29.104Z,61.20
2023-03-27T09:10:17.869Z,65.40
2023-03-27T09:13:27.937Z,65.19
2023-03-27T09:16:06.643Z,63.38
2023-03-27T09:18:33.591Z,61.50
2023-03-27T09:21:16.309Z,60.36
2023-03-27T09:23:46.603Z,58.11
2023-03-27T09:26:28.961Z,57.48
2023-03-27T09:29:19.858Z,57.97
2023-03-27T09:31:49.743Z,60.69
2023-03-27T09:34:24.662Z,64.94
2023-03-27T09:36:51.665Z,67.49
2023-03-27T09:39:27.960Z,66.31
2023-03-27T09:42:19.571Z,63.98
2023-03-27T09:44:52.569Z,60.69
2023-03-27T09:47:34.891Z,58.33
2023-03-27T09:50:54.298Z,58.18
2023-03-27T09:53:26.244Z,61.06
2023-03-27T09:56:03.975Z,63.91
2023-03-27T09:58:51.533Z,65.38
2023-03-27T10:01:28.154Z,63.70
2023-03-27T10:03:58.323Z,60.63
2023-03-27T10:06:30.970Z,61.04
2023-03-27T10:09:07.445Z,59.38
2023-03-27T10:11:36.832Z,55.97
2023-03-27T10:14:14.079Z,58.02
2023-03-27T10:16:42.679Z,58.92
2023-03-27T10:19:31.278Z,59.46
2023-03-27T10:22:04.666Z,62.80
2023-03-27T10:24:35.049Z,66.61
2023-03-27T10:27:19.941Z,66.45
2023-03-27T10:29:53.761Z,63.47
2023-03-27T10:32:50.053Z,60.49
2023-03-27T10:35:52.835Z,56.95
2023-03-27T10:38:29.270Z,58.30
2023-03-27T10:40:57.321Z,60.37
2023-03-27T10:43:40.173Z,63.16
2023-03-27T10:46:27.388Z,64.03
2023-03-27T10:49:22.423Z,62.76
2023-03-27T10:51:51.749Z,60.46
2023-03-27T10:54:32.033Z,57.04
2023-03-27T10:57:08.850Z,56.38
2023-03-27T10:59:44.823Z,57.88
2023-03-27T11:02:17.677Z,59.95
2023-03-27T11:05:02.861Z,61.11
2023-03-27T11:07:38.144Z,64.49
2023-03-27T11:10:23.370Z,65.97
2023-03-27T11:12:57.720Z,63.31
2023-03-27T11:15:39.810Z,60.39
2023-03-27T11:18:23.453Z,56.64
2023-03-27T11:20:56.915Z,56.82
2023-03-27T11:23:48.940Z,58.33
2023-03-27T11:26:18.904Z,59.21
2023-03-27T11:28:53.376Z,60.57
2023-03-27T11:31:38.999Z,63.86
2023-03-27T11:34:28.486Z,67.89
2023-03-27T11:37:19.775Z,65.30
2023-03-27T11:39:54.354Z,60.10
2023-03-27T11:42:26.926Z,55.08
2023-03-27T11:44:54.427Z,55.74
2023-03-27T11:47:25.319Z,56.45
2023-03-27T11:50:16.922Z,57.69
2023-03-27T11:53:21.873Z,61.26
2023-03-27T11:56:26.661Z,65.00
2023-03-27T11:59:23.139Z,64.95
2023-03-27T12:01:59.557Z,58.57
2023-03-27T12:04:54.208Z,56.22
2023-03-27T12:07:38.064Z,57.33
2023-03-27T12:10:29.066Z,58.00
2023-03-27T12:12:59.564Z,60.92
2023-03-27T12:15:54.761Z,63.07
2023-03-27T12:18:36.239Z,65.56
2023-03-27T12:21:17.951Z,63.03
2023-03-27T12:24:11.456Z,57.69
2023-03-27T12:26:56.720Z,53.41
2023-03-27T12:29:51.154Z,53.39
2023-03-27T12:32:42.773Z,57.09
2023-03-27T12:35:21.741Z,58.06
2023-03-27T12:38:37.961Z,59.21
2023-03-27T12:41:13.725Z,60.07
2023-03-27T12:43:46.460Z,59.15
2023-03-27T12:46:25.569Z,60.99
2023-03-27T12:49:12.993Z,61.80
2023-03-27T12:51:52.185Z,61.93
2023-03-27T12:54:26.850Z,66.42
2023-03-27T12:57:06.863Z,67.48
2023-03-27T12:59:55.056Z,63.60
2023-03-27T13:02:25.002Z,57.92
2023-03-27T13:05:24.485Z,54.35
2023-03-27T13:08:12.071Z,55.63
2023-03-27T13:10:38.911Z,57.45
2023-03-27T13:13:52.914Z,58.90
2023-03-27T13:16:38.818Z,60.01
2023-03-27T13:19:31.159Z,60.35
2023-03-27T13:22:24.993Z,61.18
2023-03-27T13:25:26.675Z,65.09
2023-03-27T13:28:12.053Z,67.42
2023-03-27T13:30:53.739Z,63.86
2023-03-27T13:33:23.383Z,56.24
2023-03-27T13:36:02.748Z,52.69
2023-03-27T13:38:49.549Z,52.52
2023-03-27T13:41:44.991Z,54.54
2023-03-27T13:44:29.138Z,54.94
2023-03-27T13:47:39.719Z,55.63
2023-03-27T13:50:14.858Z,57.93
2023-03-27T13:53:09.891Z,59.24
2023-03-27T13:56:05.713Z,59.85
2023-03-27T13:58:38.585Z,60.30
2023-03-27T14:01:13.298Z,59.68
2023-03-27T14:04:06.546Z,59.86
2023-03-27T14:06:36.694Z,60.00
2023-03-27T14:09:06.398Z,60.43
2023-03-27T14:12:02.512Z,60.68
2023-03-27T14:14:41.754Z,59.73
2023-03-27T14:17:27.144Z,60.35
2023-03-27T14:20:08.514Z,60.99
2023-03-27T14:22:44.204Z,60.95
2023-03-27T14:36:26.370Z,60.23
2023-03-27T14:38:53.357Z,60.84
2023-03-27T14:41:48.678Z,60.50
2023-03-27T14:44:18.796Z,60.35
2023-03-27T14:46:49.618Z,60.67
2023-03-27T14:49:24.892Z,60.73
2023-03-27T14:52:11.231Z,60.71
2023-03-27T14:54:55.059Z,60.46
2023-03-27T14:57:26.439Z,60.40
2023-03-27T14:59:59.423Z,60.76
2023-03-27T15:02:43.278Z,60.73
2023-03-27T15:05:14.114Z,60.81
2023-03-27T15:07:43.032Z,61.21
2023-03-27T15:10:28.357Z,60.30
2023-03-27T15:12:56.822Z,60.01
2023-03-27T15:15:31.339Z,60.12
2023-03-27T15:18:00.292Z,60.26
2023-03-27T15:20:30.613Z,60.54
2023-03-27T15:23:19.495Z,60.45
2023-03-27T15:26:12.695Z,60.09
2023-03-27T15:28:53.672Z,59.69
2023-03-27T15:31:21.265Z,59.93
2023-03-27T15:34:13.031Z,59.69
2023-03-27T15:36:43.775Z,60.27
2023-03-27T15:39:19.730Z,59.49
2023-03-27T15:41:51.681Z,59.62
2023-03-27T15:44:22.075Z,59.24
2023-03-27T15:46:55.671Z,59.30
2023-03-27T15:49:27.754Z,58.84
2023-03-27T15:51:56.307Z,58.91
2023-03-27T15:54:29.827Z,58.14
2023-03-27T15:57:09.069Z,58.64
2023-03-27T15:59:52.175Z,58.53
2023-03-27T16:02:22.711Z,57.46
2023-03-27T16:04:56.865Z,57.42
2023-03-27T16:07:30.606Z,57.59
2023-03-27T16:10:05.348Z,57.51
2023-03-27T16:12:47.689Z,56.92
2023-03-27T16:15:45.407Z,57.30
2023-03-27T16:18:34.949Z,57.33
2023-03-27T16:21:10.499Z,57.57
2023-03-27T16:23:38.249Z,57.37
2023-03-27T16:26:09.187Z,57.04
2023-03-27T16:28:36.912Z,56.89
2023-03-27T16:31:16.819Z,57.12
2023-03-27T16:33:46.225Z,57.17
2023-03-27T16:36:15.666Z,57.09
2023-03-27T16:38:44.121Z,57.11
2023-03-27T16:41:15.971Z,56.93
2023-03-27T16:43:44.271Z,56.69
2023-03-27T16:46:37.891Z,56.74
2023-03-27T16:49:05.094Z,56.26
2023-03-27T16:51:32.376Z,55.97
2023-03-27T16:54:00.046Z,56.21
2023-03-27T16:56:27.355Z,56.65
2023-03-27T16:58:54.372Z,56.50
2023-03-27T17:01:24.295Z,56.65
2023-03-27T17:03:51.492Z,57.13
2023-03-27T17:06:19.653Z,57.05
2023-03-27T17:08:47.178Z,56.99
2023-03-27T17:11:14.174Z,57.02
2023-03-27T17:13:43.607Z,57.20
2023-03-27T17:16:11.119Z,57.54
2023-03-27T17:18:38.320Z,57.66
2023-03-27T17:21:05.356Z,57.33
2023-03-27T17:23:32.728Z,57.25
2023-03-27T17:26:02.141Z,57.13
2023-03-27T17:28:30.340Z,57.34
2023-03-27T17:31:04.470Z,57.40
2023-03-27T17:33:33.080Z,57.60
2023-03-27T17:36:00.365Z,57.30
2023-03-27T17:38:28.016Z,57.47
2023-03-27T17:40:55.331Z,57.44
2023-03-27T17:43:22.846Z,57.66
2023-03-27T17:45:51.438Z,57.84
2023-03-27T17:48:19.017Z,57.75
2023-03-27T17:51:01.126Z,57.86
2023-03-27T17:53:35.590Z,57.61
2023-03-27T17:56:02.543Z,57.52
2023-03-27T17:58:29.693Z,57.66
2023-03-27T18:00:56.767Z,57.87
2023-03-27T18:03:24.111Z,57.88
2023-03-27T18:05:51.272Z,57.96
2023-03-27T18:08:20.103Z,58.05
2023-03-27T18:10:51.309Z,58.13
2023-03-27T18:13:19.519Z,58.21
2023-03-27T18:15:47.284Z,58.29
2023-03-27T18:18:14.288Z,58.44
2023-03-27T18:20:41.569Z,58.46
2023-03-27T18:23:08.721Z,58.58
2023-03-27T18:25:36.608Z,58.74
2023-03-27T18:28:03.526Z,58.86
2023-03-27T18:30:32.200Z,58.98
2023-03-27T18:32:59.358Z,59.04
2023-03-27T18:35:26.503Z,59.10
2023-03-27T18:37:53.977Z,59.20
2023-03-27T18:40:21.421Z,59.22
2023-03-27T18:42:48.739Z,59.40
2023-03-27T18:45:17.107Z,59.40
2023-03-27T18:47:45.334Z,59.54
2023-03-27T18:50:14.314Z,59.62
2023-03-27T18:52:42.209Z,59.82
2023-03-27T18:55:11.565Z,59.93
2023-03-27T18:57:38.716Z,60.02
2023-03-27T19:00:08.949Z,60.11
2023-03-27T19:02:37.098Z,60.15
2023-03-27T19:05:05.025Z,60.18
2023-03-27T19:07:32.124Z,60.28
2023-03-27T19:09:59.675Z,60.25
2023-03-27T19:12:26.687Z,60.48
2023-03-27T19:14:53.810Z,60.56
2023-03-27T19:17:21.495Z,60.57
2023-03-27T19:19:48.692Z,60.55
2023-03-27T19:22:15.834Z,60.70
2023-03-27T19:24:42.866Z,60.75
2023-03-27T19:27:23.517Z,60.88
2023-03-27T19:29:53.098Z,60.95
2023-03-27T19:32:21.049Z,60.94
2023-03-27T19:34:48.150Z,60.97
2023-03-27T19:37:15.199Z,60.92
2023-03-27T19:39:42.033Z,60.98
2023-03-27T19:42:09.096Z,61.13
2023-03-27T19:44:38.370Z,61.21
2023-03-27T19:47:07.855Z,61.33
2023-03-27T19:49:34.823Z,61.47
2023-03-27T19:52:04.043Z,61.54
2023-03-27T19:54:32.122Z,61.58
2023-03-27T19:56:59.431Z,61.67
2023-03-27T19:59:30.846Z,61.80
2023-03-27T20:01:58.982Z,61.90
2023-03-27T20:04:26.629Z,62.04
2023-03-27T20:06:55.966Z,61.96
2023-03-27T20:09:22.972Z,61.97
2023-03-27T20:11:49.728Z,62.04
2023-03-27T20:14:16.961Z,62.06
2023-03-27T20:16:43.808Z,62.13
2023-03-27T20:19:11.023Z,62.20
2023-03-27T20:21:40.706Z,64.81
2023-03-27T20:24:10.446Z,74.79
2023-03-27T20:26:41.786Z,75.42
2023-03-27T20:29:12.383Z,70.44
2023-03-27T20:31:40.410Z,65.66
2023-03-27T20:34:07.978Z,61.80
2023-03-27T20:36:35.754Z,55.66
2023-03-27T20:39:06.321Z,50.62
2023-03-27T20:41:39.277Z,49.92
2023-03-27T20:44:16.714Z,50.27
2023-03-27T20:46:47.913Z,50.89
2023-03-27T20:49:40.160Z,51.60
2023-03-27T20:52:12.327Z,52.11
2023-03-27T20:54:41.851Z,52.97
2023-03-27T20:57:13.935Z,53.90
2023-03-27T20:59:47.467Z,54.48
2023-03-27T21:02:20.855Z,55.00
2023-03-27T21:04:53.167Z,55.41
2023-03-27T21:07:21.220Z,55.92
2023-03-27T21:09:48.670Z,56.52
2023-03-27T21:12:16.606Z,57.13
2023-03-27T21:14:43.552Z,57.54
2023-03-27T21:17:18.429Z,58.14
2023-03-27T21:19:45.297Z,58.56
2023-03-27T21:22:12.154Z,58.85
2023-03-27T21:24:44.825Z,59.31
2023-03-27T21:27:27.967Z,59.56
2023-03-27T21:29:58.059Z,59.84
2023-03-27T21:32:34.401Z,60.10
2023-03-27T21:35:07.168Z,60.39
2023-03-27T21:37:37.579Z,60.69
2023-03-27T21:40:05.365Z,60.92
2023-03-27T21:42:32.335Z,61.17
2023-03-27T21:44:59.187Z,61.51
2023-03-27T21:47:34.375Z,61.77
2023-03-27T21:50:05.126Z,61.95
2023-03-27T21:52:32.180Z,62.06
2023-03-27T21:55:03.262Z,65.30
2023-03-27T21:57:30.878Z,74.94
2023-03-27T21:59:58.157Z,75.33
2023-03-27T22:02:25.096Z,71.08
2023-03-27T22:04:52.073Z,66.90
2023-03-27T22:07:18.999Z,63.50
2023-03-27T22:09:46.234Z,60.48
2023-03-27T22:12:13.868Z,55.59
2023-03-27T22:14:40.738Z,50.88
2023-03-27T22:17:07.597Z,50.19
2023-03-27T22:19:34.401Z,50.62
2023-03-27T22:22:02.116Z,51.16
2023-03-27T22:24:29.950Z,51.76
2023-03-27T22:26:57.468Z,52.62
2023-03-27T22:29:24.308Z,53.33
2023-03-27T22:31:51.151Z,53.82
2023-03-27T22:34:18.107Z,54.44
2023-03-27T22:36:45.271Z,55.17
2023-03-27T22:39:12.386Z,55.66
2023-03-27T22:41:39.236Z,56.14
2023-03-27T22:44:06.268Z,56.68
2023-03-27T22:46:34.012Z,57.25
2023-03-27T22:49:01.408Z,57.64
2023-03-27T22:51:30.607Z,58.04
2023-03-27T22:53:58.134Z,58.54
2023-03-27T22:56:25.288Z,58.91
2023-03-27T22:58:52.476Z,59.30
2023-03-27T23:01:19.411Z,59.73
2023-03-27T23:03:46.724Z,60.27
2023-03-27T23:06:19.892Z,60.68
2023-03-27T23:08:49.523Z,61.16
2023-03-27T23:11:17.590Z,61.61
2023-03-27T23:13:45.433Z,61.80
2023-03-27T23:16:13.346Z,64.51
2023-03-27T23:18:40.981Z,74.58
2023-03-27T23:21:11.157Z,76.26
2023-03-27T23:23:40.756Z,72.43
2023-03-27T23:26:08.712Z,67.98
2023-03-27T23:28:38.757Z,64.27
2023-03-27T23:31:08.715Z,61.19
2023-03-27T23:33:39.159Z,55.65
2023-03-27T23:36:17.782Z,51.22
2023-03-27T23:38:48.650Z,50.80
2023-03-27T23:41:25.811Z,51.81
2023-03-27T23:44:00.814Z,52.46
2023-03-27T23:46:33.970Z,53.29
2023-03-27T23:49:09.162Z,54.14
2023-03-27T23:51:36.052Z,54.94
2023-03-27T23:54:02.997Z,55.80
2023-03-27T23:56:29.869Z,56.46
2023-03-27T23:58:56.985Z,56.90
